createdAt,value
2018-06-21T00:00:53.617Z,22.14
2018-06-21T00:02:03.586Z,22.1
2018-06-21T00:03:13.551Z,22.01
2018-06-21T00:04:23.004Z,21.99
2018-06-21T00:05:32.980Z,21.85
2018-06-21T00:06:42.689Z,21.84
2018-06-21T00:07:52.658Z,21.72
2018-06-21T00:09:02.371Z,21.68
2018-06-21T00:10:12.342Z,21.63
2018-06-21T00:11:22.311Z,21.54
2018-06-21T00:12:32.042Z,21.47
2018-06-21T00:13:41.748Z,21.4
2018-06-21T00:14:51.467Z,21.28
2018-06-21T00:16:01.444Z,21.32
2018-06-21T00:17:11.154Z,21.35
2018-06-21T00:18:21.136Z,21.22
2018-06-21T00:19:30.638Z,21.15
2018-06-21T00:20:40.613Z,21.11
2018-06-21T00:21:50.569Z,21.05
2018-06-21T00:23:00.570Z,21.01
2018-06-21T00:24:10.559Z,21.03
2018-06-21T00:25:20.542Z,20.95
2018-06-21T00:26:30.519Z,20.86
2018-06-21T00:27:40.224Z,20.73
2018-06-21T00:28:49.694Z,20.71
2018-06-21T00:29:59.667Z,20.73
2018-06-21T00:31:09.665Z,20.73
2018-06-21T00:32:19.373Z,20.67
2018-06-21T00:33:29.326Z,20.71
2018-06-21T00:34:39.290Z,20.63
2018-06-21T00:35:49.262Z,20.63
2018-06-21T00:36:59.256Z,20.64
2018-06-21T00:38:08.966Z,20.67
2018-06-21T00:39:18.938Z,20.53
2018-06-21T00:40:28.900Z,20.53
2018-06-21T00:41:38.865Z,20.55
2018-06-21T00:42:48.846Z,20.55
2018-06-21T00:43:58.808Z,20.52
2018-06-21T00:45:08.766Z,20.5
2018-06-21T00:46:18.732Z,20.53
2018-06-21T00:47:28.454Z,20.53
2018-06-21T00:48:38.422Z,20.56
2018-06-21T00:49:48.135Z,20.48
2018-06-21T00:50:58.093Z,20.53
2018-06-21T00:52:07.542Z,20.5
2018-06-21T00:53:17.522Z,20.52
2018-06-21T00:54:27.486Z,20.48
2018-06-21T00:55:37.443Z,20.44
2018-06-21T00:56:47.157Z,20.44
2018-06-21T00:57:57.117Z,20.42
2018-06-21T00:59:07.087Z,20.3
2018-06-21T01:00:16.539Z,20.33
2018-06-21T01:01:26.249Z,20.44
2018-06-21T01:02:36.214Z,20.32
2018-06-21T01:03:45.945Z,20.34
2018-06-21T01:04:55.690Z,20.29
2018-06-21T01:06:05.655Z,20.4
2018-06-21T01:07:15.621Z,20.39
2018-06-21T01:08:25.585Z,20.37
2018-06-21T01:09:35.295Z,20.26
2018-06-21T01:10:45.254Z,20.34
2018-06-21T01:11:55.209Z,20.36
2018-06-21T01:13:04.674Z,20.36
2018-06-21T01:14:14.622Z,20.33
2018-06-21T01:15:24.581Z,20.37
2018-06-21T01:16:34.288Z,20.32
2018-06-21T01:17:44.259Z,20.32
2018-06-21T01:18:53.448Z,20.29
2018-06-21T01:20:03.416Z,20.32
2018-06-21T01:21:13.380Z,20.3
2018-06-21T01:22:23.079Z,20.4
2018-06-21T01:23:32.792Z,20.36
2018-06-21T01:24:42.750Z,20.33
2018-06-21T01:25:52.715Z,20.36
2018-06-21T01:27:02.445Z,20.32
2018-06-21T01:28:12.155Z,20.29
2018-06-21T01:29:21.862Z,20.26
2018-06-21T01:30:31.836Z,20.11
2018-06-21T01:31:41.553Z,20.19
2018-06-21T01:32:51.273Z,20.11
2018-06-21T01:34:00.975Z,20.17
2018-06-21T01:35:10.936Z,20.08
2018-06-21T01:36:20.911Z,20.14
2018-06-21T01:37:30.876Z,20
2018-06-21T01:38:40.598Z,20
2018-06-21T01:39:50.048Z,20.03
2018-06-21T01:40:59.753Z,20.07
2018-06-21T01:42:09.725Z,20.11
2018-06-21T01:43:19.425Z,20.02
2018-06-21T01:44:29.397Z,20
2018-06-21T01:45:39.416Z,19.97
2018-06-21T01:46:49.399Z,20
2018-06-21T01:47:59.367Z,19.96
2018-06-21T01:49:09.335Z,19.99
2018-06-21T01:50:19.305Z,19.97
2018-06-21T01:51:29.280Z,19.96
2018-06-21T01:52:39.236Z,19.94
2018-06-21T01:53:48.693Z,19.87
2018-06-21T01:54:58.663Z,19.87
2018-06-21T01:56:08.623Z,19.97
2018-06-21T01:57:18.578Z,19.97
2018-06-21T01:58:28.282Z,19.92
2018-06-21T01:59:38.251Z,19.85
2018-06-21T02:00:48.217Z,19.87
2018-06-21T02:01:58.200Z,19.87
2018-06-21T02:03:08.167Z,19.82
2018-06-21T02:04:18.114Z,19.87
2018-06-21T02:05:27.824Z,19.82
2018-06-21T02:06:37.535Z,19.87
2018-06-21T02:07:47.506Z,19.85
2018-06-21T02:08:57.477Z,19.85
2018-06-21T02:10:07.438Z,19.85
2018-06-21T02:11:17.404Z,19.84
2018-06-21T02:12:27.374Z,19.77
2018-06-21T02:13:37.079Z,19.79
2018-06-21T02:14:46.782Z,19.71
2018-06-21T02:15:56.490Z,19.72
2018-06-21T02:17:06.461Z,19.71
2018-06-21T02:18:16.423Z,19.67
2018-06-21T02:19:26.385Z,19.7
2018-06-21T02:20:36.096Z,19.66
2018-06-21T02:21:45.814Z,19.62
2018-06-21T02:22:55.782Z,19.71
2018-06-21T02:24:05.797Z,19.66
2018-06-21T02:25:15.762Z,19.71
2018-06-21T02:26:25.739Z,19.67
2018-06-21T02:27:35.700Z,19.64
2018-06-21T02:28:45.667Z,19.72
2018-06-21T02:29:55.639Z,19.77
2018-06-21T02:31:05.345Z,19.71
2018-06-21T02:32:15.050Z,19.67
2018-06-21T02:33:25.102Z,19.67
2018-06-21T02:34:34.813Z,19.67
2018-06-21T02:35:44.532Z,19.66
2018-06-21T02:36:54.523Z,19.64
2018-06-21T02:38:04.251Z,19.56
2018-06-21T02:39:13.972Z,19.59
2018-06-21T02:40:23.950Z,19.6
2018-06-21T02:41:33.936Z,19.6
2018-06-21T02:42:43.661Z,19.56
2018-06-21T02:43:53.639Z,19.53
2018-06-21T02:45:03.608Z,19.52
2018-06-21T02:46:13.592Z,19.56
2018-06-21T02:47:23.576Z,19.53
2018-06-21T02:48:33.312Z,19.53
2018-06-21T02:49:43.282Z,19.53
2018-06-21T02:50:53.253Z,19.53
2018-06-21T02:52:03.224Z,19.57
2018-06-21T02:53:12.684Z,19.59
2018-06-21T02:54:22.390Z,19.53
2018-06-21T02:55:32.362Z,19.55
2018-06-21T02:56:42.347Z,19.62
2018-06-21T02:57:52.338Z,19.62
2018-06-21T02:59:02.053Z,19.59
2018-06-21T03:00:12.056Z,19.56
2018-06-21T03:01:21.785Z,19.55
2018-06-21T03:02:31.746Z,19.63
2018-06-21T03:03:41.471Z,19.63
2018-06-21T03:04:51.182Z,19.71
2018-06-21T03:06:01.145Z,19.64
2018-06-21T03:07:11.147Z,19.66
2018-06-21T03:08:21.121Z,19.7
2018-06-21T03:09:30.830Z,19.71
2018-06-21T03:10:40.301Z,19.6
2018-06-21T03:11:50.281Z,19.56
2018-06-21T03:13:00.276Z,19.59
2018-06-21T03:14:10.247Z,19.63
2018-06-21T03:15:20.230Z,19.66
2018-06-21T03:16:30.204Z,19.64
2018-06-21T03:17:40.186Z,19.63
2018-06-21T03:18:49.903Z,19.64
2018-06-21T03:19:59.613Z,19.64
2018-06-21T03:21:09.599Z,19.71
2018-06-21T03:22:19.316Z,19.74
2018-06-21T03:23:29.029Z,19.7
2018-06-21T03:24:38.985Z,19.7
2018-06-21T03:25:48.951Z,19.67
2018-06-21T03:26:58.912Z,19.78
2018-06-21T03:28:08.623Z,19.82
2018-06-21T03:29:18.581Z,19.81
2018-06-21T03:30:28.295Z,19.67
2018-06-21T03:31:38.299Z,19.7
2018-06-21T03:32:48.012Z,19.71
2018-06-21T03:33:57.980Z,19.81
2018-06-21T03:35:07.939Z,19.89
2018-06-21T03:36:17.647Z,19.77
2018-06-21T03:37:27.614Z,19.78
2018-06-21T03:38:37.056Z,19.87
2018-06-21T03:39:47.051Z,19.85
2018-06-21T03:40:57.016Z,19.84
2018-06-21T03:42:06.978Z,19.84
2018-06-21T03:43:16.433Z,19.9
2018-06-21T03:44:26.433Z,19.94
2018-06-21T03:45:35.903Z,20.02
2018-06-21T03:46:45.650Z,20.07
2018-06-21T03:47:55.610Z,19.96
2018-06-21T03:49:05.649Z,20.12
2018-06-21T03:50:15.607Z,20.14
2018-06-21T03:51:25.317Z,20.18
2018-06-21T03:52:35.036Z,20.21
2018-06-21T03:53:45.019Z,20.19
2018-06-21T03:54:54.728Z,20.24
2018-06-21T03:56:04.701Z,20.27
2018-06-21T03:57:14.666Z,20.33
2018-06-21T03:58:24.634Z,20.34
2018-06-21T03:59:34.334Z,20.37
2018-06-21T04:00:44.090Z,20.3
2018-06-21T04:01:53.553Z,20.44
2018-06-21T04:03:03.338Z,20.44
2018-06-21T04:04:13.471Z,20.5
2018-06-21T04:05:23.559Z,20.48
2018-06-21T04:06:33.857Z,20.56
2018-06-21T04:07:43.558Z,20.53
2018-06-21T04:08:53.526Z,20.42
2018-06-21T04:10:03.243Z,20.44
2018-06-21T04:11:13.222Z,20.4
2018-06-21T04:12:23.194Z,20.37
2018-06-21T04:13:33.163Z,20.4
2018-06-21T04:14:42.605Z,20.32
2018-06-21T04:15:52.585Z,20.29
2018-06-21T04:17:02.579Z,20.39
2018-06-21T04:18:12.542Z,20.33
2018-06-21T04:19:22.258Z,20.37
2018-06-21T04:20:32.228Z,20.24
2018-06-21T04:21:41.936Z,20.27
2018-06-21T04:22:51.645Z,20.21
2018-06-21T04:24:01.348Z,20.19
2018-06-21T04:25:11.081Z,20.19
2018-06-21T04:26:20.807Z,20.15
2018-06-21T04:27:30.847Z,20.11
2018-06-21T04:28:40.803Z,20.12
2018-06-21T04:29:50.259Z,20.17
2018-06-21T04:31:00.231Z,20.11
2018-06-21T04:32:09.953Z,20.07
2018-06-21T04:33:20.011Z,20.14
2018-06-21T04:34:29.985Z,20.11
2018-06-21T04:35:39.698Z,20.12
2018-06-21T04:36:49.655Z,20.12
2018-06-21T04:37:59.474Z,20.12
2018-06-21T04:39:09.455Z,20.14
2018-06-21T04:40:19.172Z,20.18
2018-06-21T04:41:29.149Z,20.12
2018-06-21T04:42:39.121Z,20.21
2018-06-21T04:43:49.075Z,20.22
2018-06-21T04:44:58.792Z,20.21
2018-06-21T04:46:08.763Z,20.22
2018-06-21T04:47:18.732Z,20.24
2018-06-21T04:48:28.694Z,20.21
2018-06-21T04:49:38.424Z,20.36
2018-06-21T04:50:47.627Z,20.33
2018-06-21T04:51:57.347Z,20.27
2018-06-21T04:53:06.793Z,20.39
2018-06-21T04:54:16.503Z,20.48
2018-06-21T04:55:26.473Z,20.4
2018-06-21T04:56:36.180Z,20.5
2018-06-21T04:57:45.909Z,20.56
2018-06-21T04:58:55.623Z,20.59
2018-06-21T05:00:05.784Z,20.56
2018-06-21T05:01:16.184Z,20.66
2018-06-21T05:02:26.167Z,20.66
2018-06-21T05:03:36.139Z,20.64
2018-06-21T05:04:45.840Z,20.68
2018-06-21T05:05:55.832Z,20.73
2018-06-21T05:07:05.809Z,20.78
2018-06-21T05:08:15.788Z,20.8
2018-06-21T05:09:25.765Z,20.77
2018-06-21T05:10:35.476Z,20.78
2018-06-21T05:11:45.446Z,20.85
2018-06-21T05:12:55.417Z,20.93
2018-06-21T05:14:05.399Z,20.92
2018-06-21T05:15:15.386Z,20.95
2018-06-21T05:16:25.089Z,20.92
2018-06-21T05:17:35.065Z,20.95
2018-06-21T05:18:45.042Z,21.01
2018-06-21T05:19:55.073Z,21.07
2018-06-21T05:21:05.047Z,21.01
2018-06-21T05:22:14.759Z,21.11
2018-06-21T05:23:24.470Z,21.17
2018-06-21T05:24:34.238Z,21.15
2018-06-21T05:25:43.973Z,21.13
2018-06-21T05:26:53.694Z,21.28
2018-06-21T05:28:03.662Z,21.26
2018-06-21T05:29:13.129Z,21.22
2018-06-21T05:30:23.167Z,21.17
2018-06-21T05:31:32.867Z,21.19
2018-06-21T05:32:42.857Z,21.25
2018-06-21T05:33:52.831Z,21.25
2018-06-21T05:35:02.553Z,21.28
2018-06-21T05:36:12.537Z,21.33
2018-06-21T05:37:22.323Z,21.33
2018-06-21T05:38:32.145Z,21.37
2018-06-21T05:39:41.598Z,21.4
2018-06-21T05:40:51.565Z,21.41
2018-06-21T05:42:01.540Z,21.45
2018-06-21T05:43:11.520Z,21.44
2018-06-21T05:44:21.369Z,21.63
2018-06-21T05:45:31.304Z,21.63
2018-06-21T05:46:41.331Z,21.75
2018-06-21T05:47:51.319Z,21.75
2018-06-21T05:49:01.296Z,21.88
2018-06-21T05:50:11.445Z,21.99
2018-06-21T05:51:21.336Z,21.99
2018-06-21T05:52:31.096Z,22.07
2018-06-21T05:53:40.811Z,22.18
2018-06-21T05:54:50.781Z,22.14
2018-06-21T05:56:00.759Z,22.15
2018-06-21T05:57:10.739Z,22.22
2018-06-21T05:58:20.739Z,22.31
2018-06-21T05:59:30.781Z,22.33
2018-06-21T06:00:40.770Z,22.31
2018-06-21T06:01:50.535Z,22.43
2018-06-21T06:03:00.581Z,22.47
2018-06-21T06:04:10.303Z,22.53
2018-06-21T06:05:20.296Z,22.62
2018-06-21T06:06:30.004Z,22.68
2018-06-21T06:07:40.003Z,22.67
2018-06-21T06:08:49.982Z,22.78
2018-06-21T06:10:00.139Z,22.76
2018-06-21T06:11:09.923Z,22.88
2018-06-21T06:12:19.912Z,22.92
2018-06-21T06:13:29.922Z,23.04
2018-06-21T06:14:39.926Z,23.06
2018-06-21T06:15:49.913Z,23.02
2018-06-21T06:16:59.923Z,23.06
2018-06-21T06:18:09.922Z,23.04
2018-06-21T06:19:19.668Z,23.01
2018-06-21T06:20:29.676Z,23.16
2018-06-21T06:21:39.655Z,23.21
2018-06-21T06:22:49.389Z,23.25
2018-06-21T06:23:59.365Z,23.33
2018-06-21T06:25:09.095Z,23.32
2018-06-21T06:26:19.102Z,23.45
2018-06-21T06:27:29.092Z,23.48
2018-06-21T06:28:39.233Z,23.4
2018-06-21T06:29:49.401Z,23.42
2018-06-21T06:30:59.359Z,23.47
2018-06-21T06:32:09.342Z,23.54
2018-06-21T06:33:19.340Z,23.59
2018-06-21T06:34:29.319Z,23.64
2018-06-21T06:35:39.054Z,23.67
2018-06-21T06:36:48.797Z,23.71
2018-06-21T06:37:58.573Z,23.69
2018-06-21T06:39:08.568Z,23.74
2018-06-21T06:40:18.646Z,23.84
2018-06-21T06:41:28.722Z,23.94
2018-06-21T06:42:38.727Z,23.91
2018-06-21T06:43:48.710Z,23.91
2018-06-21T06:44:58.751Z,23.89
2018-06-21T06:46:08.817Z,23.99
2018-06-21T06:47:18.963Z,24
2018-06-21T06:48:28.953Z,24.04
2018-06-21T06:49:38.988Z,24.01
2018-06-21T06:50:48.976Z,24.14
2018-06-21T06:51:58.736Z,24.19
2018-06-21T06:53:08.702Z,24.26
2018-06-21T06:54:18.476Z,24.34
2018-06-21T06:55:28.303Z,24.32
2018-06-21T06:56:38.359Z,24.44
2018-06-21T06:57:48.080Z,24.56
2018-06-21T06:58:58.060Z,24.58
2018-06-21T07:00:07.819Z,24.56
2018-06-21T07:01:17.815Z,24.71
2018-06-21T07:02:27.584Z,24.65
2018-06-21T07:03:37.599Z,24.79
2018-06-21T07:04:47.607Z,24.77
2018-06-21T07:05:57.658Z,24.63
2018-06-21T07:07:07.405Z,24.62
2018-06-21T07:08:17.671Z,24.53
2018-06-21T07:09:27.743Z,24.71
2018-06-21T07:10:37.473Z,24.63
2018-06-21T07:11:47.454Z,24.74
2018-06-21T07:12:56.947Z,24.82
2018-06-21T07:14:06.704Z,24.89
2018-06-21T07:15:16.819Z,24.93
2018-06-21T07:16:26.795Z,24.93
2018-06-21T07:17:36.799Z,24.88
2018-06-21T07:18:46.520Z,24.92
2018-06-21T07:19:56.506Z,25.04
2018-06-21T07:21:06.517Z,25.04
2018-06-21T07:22:16.259Z,25.24
2018-06-21T07:23:26.252Z,25.24
2018-06-21T07:24:36.251Z,25.25
2018-06-21T07:25:45.970Z,25.31
2018-06-21T07:26:55.720Z,25.46
2018-06-21T07:28:05.747Z,25.54
2018-06-21T07:29:15.732Z,25.41
2018-06-21T07:30:25.715Z,25.33
2018-06-21T07:31:35.760Z,25.19
2018-06-21T07:32:45.759Z,25.21
2018-06-21T07:33:55.476Z,25.21
2018-06-21T07:35:04.932Z,25.16
2018-06-21T07:36:14.954Z,25.16
2018-06-21T07:37:24.941Z,25.15
2018-06-21T07:38:34.907Z,25.15
2018-06-21T07:39:44.620Z,25.07
2018-06-21T07:40:54.639Z,25
2018-06-21T07:42:04.629Z,25.03
2018-06-21T07:43:14.613Z,25.06
2018-06-21T07:44:24.356Z,25.06
2018-06-21T07:45:34.339Z,25.03
2018-06-21T07:46:44.083Z,25.04
2018-06-21T07:47:53.620Z,25.04
2018-06-21T07:49:03.330Z,25.04
2018-06-21T07:50:13.338Z,25.16
2018-06-21T07:51:23.069Z,25.16
2018-06-21T07:52:32.800Z,25.22
2018-06-21T07:53:42.533Z,25.21
2018-06-21T07:54:52.660Z,25.31
2018-06-21T07:56:02.661Z,25.29
2018-06-21T07:57:12.675Z,25.33
2018-06-21T07:58:22.419Z,25.44
2018-06-21T07:59:32.474Z,25.4
2018-06-21T08:00:42.489Z,25.37
2018-06-21T08:01:52.524Z,25.43
2018-06-21T08:03:02.254Z,25.4
2018-06-21T08:04:12.255Z,25.55
2018-06-21T08:05:22.238Z,25.43
2018-06-21T08:06:32.213Z,25.52
2018-06-21T08:07:41.954Z,25.55
2018-06-21T08:08:51.965Z,25.43
2018-06-21T08:10:01.714Z,25.52
2018-06-21T08:11:11.220Z,25.61
2018-06-21T08:12:21.443Z,25.73
2018-06-21T08:13:31.438Z,25.78
2018-06-21T08:14:41.428Z,25.8
2018-06-21T08:15:51.161Z,25.86
2018-06-21T08:17:00.928Z,25.92
2018-06-21T08:18:10.919Z,25.88
2018-06-21T08:19:20.135Z,25.85
2018-06-21T08:20:29.777Z,25.76
2018-06-21T08:21:39.824Z,25.76
2018-06-21T08:22:49.822Z,25.81
2018-06-21T08:23:59.853Z,25.81
2018-06-21T08:25:10.094Z,25.92
2018-06-21T08:26:19.841Z,26.22
2018-06-21T08:27:29.572Z,26.19
2018-06-21T08:28:39.307Z,26.31
2018-06-21T08:29:49.530Z,26.34
2018-06-21T08:30:59.539Z,26.44
2018-06-21T08:32:09.348Z,26.49
2018-06-21T08:33:19.452Z,26.48
2018-06-21T08:34:29.450Z,26.37
2018-06-21T08:35:39.434Z,26.37
2018-06-21T08:36:49.455Z,26.45
2018-06-21T08:37:59.474Z,26.41
2018-06-21T08:39:09.506Z,26.39
2018-06-21T08:40:19.498Z,26.48
2018-06-21T08:41:29.227Z,26.55
2018-06-21T08:42:38.950Z,26.63
2018-06-21T08:43:48.686Z,26.49
2018-06-21T08:44:58.420Z,26.51
2018-06-21T08:46:08.798Z,26.39
2018-06-21T08:47:19.036Z,26.31
2018-06-21T08:48:29.063Z,26.37
2018-06-21T08:49:38.285Z,26.46
2018-06-21T08:50:48.017Z,26.59
2018-06-21T08:51:57.843Z,26.55
2018-06-21T08:53:08.012Z,26.48
2018-06-21T08:54:17.745Z,26.48
2018-06-21T08:55:27.472Z,26.37
2018-06-21T08:56:37.226Z,26.52
2018-06-21T08:57:47.209Z,26.59
2018-06-21T08:58:56.957Z,26.74
2018-06-21T09:00:06.988Z,26.83
2018-06-21T09:01:17.009Z,26.85
2018-06-21T09:02:26.989Z,26.74
2018-06-21T09:03:37.013Z,26.7
2018-06-21T09:04:47.091Z,26.6
2018-06-21T09:05:57.084Z,26.59
2018-06-21T09:07:06.819Z,26.55
2018-06-21T09:08:16.567Z,26.49
2018-06-21T09:09:26.573Z,26.37
2018-06-21T09:10:36.568Z,26.3
2018-06-21T09:11:46.578Z,26.29
2018-06-21T09:12:56.577Z,26.31
2018-06-21T09:14:06.564Z,26.33
2018-06-21T09:15:16.682Z,26.39
2018-06-21T09:16:26.833Z,26.45
2018-06-21T09:17:36.605Z,26.49
2018-06-21T09:18:46.628Z,26.51
2018-06-21T09:19:56.425Z,26.49
2018-06-21T09:21:06.311Z,26.66
2018-06-21T09:22:16.347Z,26.78
2018-06-21T09:23:26.323Z,26.96
2018-06-21T09:24:35.811Z,27.1
2018-06-21T09:25:45.557Z,27.2
2018-06-21T09:26:55.284Z,27.03
2018-06-21T09:28:05.007Z,26.98
2018-06-21T09:29:14.983Z,26.91
2018-06-21T09:30:24.700Z,26.81
2018-06-21T09:31:34.685Z,26.83
2018-06-21T09:32:44.668Z,26.73
2018-06-21T09:33:54.708Z,26.86
2018-06-21T09:35:04.693Z,26.85
2018-06-21T09:36:14.668Z,27.01
2018-06-21T09:37:24.704Z,27.37
2018-06-21T09:38:34.685Z,27.47
2018-06-21T09:39:44.688Z,27.68
2018-06-21T09:40:54.680Z,27.83
2018-06-21T09:42:04.644Z,27.86
2018-06-21T09:43:14.650Z,27.83
2018-06-21T09:44:24.618Z,27.88
2018-06-21T09:45:34.598Z,27.76
2018-06-21T09:46:44.589Z,27.78
2018-06-21T09:47:54.575Z,27.95
2018-06-21T09:49:04.560Z,28.22
2018-06-21T09:50:14.296Z,28.33
2018-06-21T09:51:24.042Z,28.25
2018-06-21T09:52:34.339Z,28.37
2018-06-21T09:53:44.556Z,28.47
2018-06-21T09:54:54.542Z,28.64
2018-06-21T09:56:04.540Z,28.6
2018-06-21T09:57:14.290Z,28.41
2018-06-21T09:58:24.018Z,28.25
2018-06-21T09:59:34.041Z,28.23
2018-06-21T10:00:43.782Z,28.09
2018-06-21T10:01:53.825Z,27.97
2018-06-21T10:03:03.283Z,27.98
2018-06-21T10:04:13.015Z,27.88
2018-06-21T10:05:22.810Z,27.78
2018-06-21T10:06:32.794Z,27.73
2018-06-21T10:07:42.781Z,27.93
2018-06-21T10:08:52.779Z,28.1
2018-06-21T10:10:02.513Z,28.12
2018-06-21T10:11:12.244Z,28.1
2018-06-21T10:12:22.234Z,28.09
2018-06-21T10:13:31.957Z,28.12
2018-06-21T10:14:41.439Z,27.93
2018-06-21T10:15:51.563Z,27.95
2018-06-21T10:17:01.366Z,27.86
2018-06-21T10:18:11.364Z,27.71
2018-06-21T10:19:21.397Z,27.5
2018-06-21T10:20:31.550Z,27.61
2018-06-21T10:21:41.375Z,27.57
2018-06-21T10:22:51.150Z,27.6
2018-06-21T10:24:01.156Z,27.78
2018-06-21T10:25:10.888Z,27.73
2018-06-21T10:26:20.390Z,27.72
2018-06-21T10:27:30.384Z,27.91
2018-06-21T10:28:40.098Z,27.91
2018-06-21T10:29:49.818Z,27.9
2018-06-21T10:30:59.816Z,27.75
2018-06-21T10:32:09.538Z,27.68
2018-06-21T10:33:19.515Z,27.71
2018-06-21T10:34:29.237Z,27.81
2018-06-21T10:35:39.223Z,27.78
2018-06-21T10:36:49.199Z,27.97
2018-06-21T10:37:59.217Z,28.08
2018-06-21T10:39:08.940Z,28.1
2018-06-21T10:40:18.930Z,27.95
2018-06-21T10:41:28.671Z,28.06
2018-06-21T10:42:38.864Z,28.09
2018-06-21T10:43:48.868Z,28.15
2018-06-21T10:44:58.850Z,28.28
2018-06-21T10:46:08.831Z,28.13
2018-06-21T10:47:18.819Z,27.93
2018-06-21T10:48:28.556Z,27.04
2018-06-21T10:49:38.534Z,26.19
2018-06-21T10:50:48.509Z,25.52
2018-06-21T10:51:58.474Z,24.25
2018-06-21T10:53:08.465Z,23.16
2018-06-21T10:54:18.436Z,22.76
2018-06-21T10:55:28.403Z,22.52
2018-06-21T10:56:37.885Z,22.4
2018-06-21T10:57:47.872Z,21.94
2018-06-21T10:58:57.856Z,21.15
2018-06-21T11:00:07.599Z,20.68
2018-06-21T11:01:17.573Z,20.44
2018-06-21T11:02:27.548Z,20.44
2018-06-21T11:03:37.549Z,20.17
2018-06-21T11:04:47.522Z,20
2018-06-21T11:05:57.532Z,19.72
2018-06-21T11:07:07.261Z,19.26
2018-06-21T11:08:16.994Z,18.7
2018-06-21T11:09:27.012Z,18.41
2018-06-21T11:10:36.470Z,17.97
2018-06-21T11:11:45.929Z,17.65
2018-06-21T11:12:55.665Z,17.53
2018-06-21T11:14:05.378Z,17.32
2018-06-21T11:15:15.339Z,17.28
2018-06-21T11:16:24.817Z,17.2
2018-06-21T11:17:34.555Z,17.31
2018-06-21T11:18:44.543Z,17.32
2018-06-21T11:19:54.285Z,17.39
2018-06-21T11:21:04.289Z,17.53
2018-06-21T11:22:14.304Z,17.6
2018-06-21T11:23:24.286Z,17.78
2018-06-21T11:24:34.054Z,18.03
2018-06-21T11:25:44.039Z,18.09
2018-06-21T11:26:54.080Z,18.21
2018-06-21T11:28:04.323Z,18.37
2018-06-21T11:29:14.540Z,18.45
2018-06-21T11:30:24.353Z,18.49
2018-06-21T11:31:34.567Z,18.48
2018-06-21T11:32:44.306Z,18.58
2018-06-21T11:33:54.085Z,18.53
2018-06-21T11:35:04.119Z,18.58
2018-06-21T11:36:13.847Z,18.58
2018-06-21T11:37:23.881Z,18.7
2018-06-21T11:38:33.880Z,18.81
2018-06-21T11:39:43.872Z,19.05
2018-06-21T11:40:53.880Z,18.97
2018-06-21T11:42:03.657Z,19.15
2018-06-21T11:43:13.858Z,19.27
2018-06-21T11:44:23.575Z,19.2
2018-06-21T11:45:33.288Z,19.05
2018-06-21T11:46:43.360Z,18.92
2018-06-21T11:47:52.933Z,18.67
2018-06-21T11:49:02.654Z,18.51
2018-06-21T11:50:12.649Z,18.36
2018-06-21T11:51:22.128Z,18.36
2018-06-21T11:52:31.885Z,18.34
2018-06-21T11:53:41.634Z,18.24
2018-06-21T11:54:51.676Z,18.26
2018-06-21T11:56:01.403Z,18.23
2018-06-21T11:57:11.399Z,18.26
2018-06-21T11:58:21.403Z,18.12
2018-06-21T11:59:31.184Z,18.02
2018-06-21T12:00:40.933Z,18.11
2018-06-21T12:01:51.120Z,17.95
2018-06-21T12:03:01.012Z,17.86
2018-06-21T12:04:10.754Z,17.71
2018-06-21T12:05:20.478Z,17.71
2018-06-21T12:06:30.202Z,17.66
2018-06-21T12:07:40.173Z,17.68
2018-06-21T12:08:50.478Z,17.66
2018-06-21T12:09:59.974Z,17.5
2018-06-21T12:11:09.982Z,17.59
2018-06-21T12:12:19.486Z,17.47
2018-06-21T12:13:29.469Z,17.27
2018-06-21T12:14:39.726Z,17.16
2018-06-21T12:15:49.459Z,16.69
2018-06-21T12:16:59.428Z,16.43
2018-06-21T12:18:09.144Z,16.41
2018-06-21T12:19:19.145Z,16.34
2018-06-21T12:20:28.876Z,16.39
2018-06-21T12:21:38.619Z,16.28
2018-06-21T12:22:48.797Z,16.05
2018-06-21T12:23:58.807Z,15.9
2018-06-21T12:25:08.800Z,15.75
2018-06-21T12:26:18.879Z,15.75
2018-06-21T12:27:29.129Z,15.65
2018-06-21T12:28:39.127Z,15.57
2018-06-21T12:29:48.852Z,15.51
2018-06-21T12:30:58.813Z,15.39
2018-06-21T12:32:09.106Z,15.26
2018-06-21T12:33:18.690Z,15.19
2018-06-21T12:34:28.706Z,14.97
2018-06-21T12:35:38.690Z,14.89
2018-06-21T12:36:48.642Z,14.49
2018-06-21T12:37:58.428Z,14.31
2018-06-21T12:39:08.589Z,14.12
2018-06-21T12:40:18.599Z,13.97
2018-06-21T12:41:28.578Z,13.94
2018-06-21T12:42:38.555Z,13.8
2018-06-21T12:43:48.718Z,13.79
2018-06-21T12:44:58.441Z,13.75
2018-06-21T12:46:08.444Z,13.64
2018-06-21T12:47:18.183Z,13.64
2018-06-21T12:48:28.187Z,13.65
2018-06-21T12:49:38.170Z,13.55
2018-06-21T12:50:48.162Z,13.61
2018-06-21T12:51:58.163Z,13.67
2018-06-21T12:53:07.896Z,13.7
2018-06-21T12:54:17.629Z,13.57
2018-06-21T12:55:27.358Z,13.58
2018-06-21T12:56:37.078Z,13.61
2018-06-21T12:57:47.078Z,13.6
2018-06-21T12:58:57.066Z,13.61
2018-06-21T13:00:07.112Z,13.58
2018-06-21T13:01:16.584Z,13.46
2018-06-21T13:02:26.587Z,13.5
2018-06-21T13:03:36.614Z,13.47
2018-06-21T13:04:46.301Z,13.54
2018-06-21T13:05:56.264Z,13.47
2018-06-21T13:07:06.265Z,13.47
2018-06-21T13:08:16.258Z,13.43
2018-06-21T13:09:25.968Z,13.47
2018-06-21T13:10:35.958Z,13.49
2018-06-21T13:11:45.937Z,13.45
2018-06-21T13:12:55.662Z,13.5
2018-06-21T13:14:05.656Z,13.31
2018-06-21T13:15:15.632Z,13.26
2018-06-21T13:16:25.706Z,13.33
2018-06-21T13:17:35.696Z,13.19
2018-06-21T13:18:45.682Z,13.23
2018-06-21T13:19:55.659Z,13.27
2018-06-21T13:21:05.384Z,13.36
2018-06-21T13:22:15.420Z,13.31
2018-06-21T13:23:25.564Z,13.43
2018-06-21T13:24:35.298Z,13.58
2018-06-21T13:25:45.271Z,13.68
2018-06-21T13:26:55.255Z,13.78
2018-06-21T13:28:04.996Z,13.89
2018-06-21T13:29:14.990Z,13.93
2018-06-21T13:30:24.978Z,14.12
2018-06-21T13:31:34.960Z,14.28
2018-06-21T13:32:44.937Z,14.51
2018-06-21T13:33:54.930Z,14.73
2018-06-21T13:35:04.924Z,14.85
2018-06-21T13:36:14.936Z,14.99
2018-06-21T13:37:24.657Z,15.02
2018-06-21T13:38:34.643Z,15.11
2018-06-21T13:39:44.619Z,15.18
2018-06-21T13:40:54.334Z,15.32
2018-06-21T13:42:04.046Z,15.47
2018-06-21T13:43:14.057Z,15.47
2018-06-21T13:44:24.049Z,15.7
2018-06-21T13:45:34.024Z,15.76
2018-06-21T13:46:43.501Z,15.88
2018-06-21T13:47:53.479Z,15.75
2018-06-21T13:49:03.486Z,15.75
2018-06-21T13:50:12.945Z,15.91
2018-06-21T13:51:22.971Z,15.76
2018-06-21T13:52:32.968Z,15.59
2018-06-21T13:53:42.974Z,15.48
2018-06-21T13:54:52.726Z,15.39
2018-06-21T13:56:02.723Z,15.37
2018-06-21T13:57:12.695Z,15.41
2018-06-21T13:58:22.688Z,15.43
2018-06-21T13:59:32.672Z,15.32
2018-06-21T14:00:42.741Z,15.17
2018-06-21T14:01:52.738Z,15.18
2018-06-21T14:03:02.746Z,15.15
2018-06-21T14:04:12.722Z,15.17
2018-06-21T14:05:22.445Z,15.22
2018-06-21T14:06:32.429Z,15.17
2018-06-21T14:07:42.758Z,15.1
2018-06-21T14:08:52.839Z,15.05
2018-06-21T14:10:02.845Z,14.92
2018-06-21T14:11:12.599Z,15
2018-06-21T14:12:22.582Z,14.93
2018-06-21T14:13:32.297Z,14.87
2018-06-21T14:14:41.837Z,14.74
2018-06-21T14:15:51.692Z,14.82
2018-06-21T14:17:01.699Z,14.77
2018-06-21T14:18:11.714Z,14.67
2018-06-21T14:19:21.982Z,14.67
2018-06-21T14:20:32.053Z,14.66
2018-06-21T14:21:42.359Z,14.62
2018-06-21T14:22:52.335Z,14.51
2018-06-21T14:24:02.061Z,14.56
2018-06-21T14:25:12.060Z,14.43
2018-06-21T14:26:22.033Z,14.4
2018-06-21T14:27:31.491Z,14.38
2018-06-21T14:28:41.501Z,14.26
2018-06-21T14:29:51.497Z,14.28
2018-06-21T14:31:00.952Z,14.25
2018-06-21T14:32:10.922Z,14.3
2018-06-21T14:33:21.080Z,14.3
2018-06-21T14:34:30.804Z,14.25
2018-06-21T14:35:40.533Z,14.31
2018-06-21T14:36:50.266Z,14.34
2018-06-21T14:37:59.980Z,14.34
2018-06-21T14:39:09.965Z,14.49
2018-06-21T14:40:19.951Z,14.52
2018-06-21T14:41:29.671Z,14.58
2018-06-21T14:42:39.654Z,14.79
2018-06-21T14:43:49.621Z,14.87
2018-06-21T14:44:59.370Z,15.1
2018-06-21T14:46:09.395Z,15.22
2018-06-21T14:47:19.144Z,15.47
2018-06-21T14:48:29.344Z,15.69
2018-06-21T14:49:39.341Z,15.76
2018-06-21T14:50:49.072Z,15.76
2018-06-21T14:51:59.061Z,15.76
2018-06-21T14:53:09.047Z,15.76
2018-06-21T14:54:18.770Z,15.9
2018-06-21T14:55:28.478Z,15.99
2018-06-21T14:56:38.465Z,16.13
2018-06-21T14:57:48.178Z,16.25
2018-06-21T14:58:58.168Z,16.4
2018-06-21T15:00:07.912Z,16.44
2018-06-21T15:01:17.623Z,16.49
2018-06-21T15:02:27.613Z,16.58
2018-06-21T15:03:37.607Z,16.65